createdAt,value
2022-09-20T00:00:45.462Z,9.65
2022-09-20T00:03:12.767Z,8.15
2022-09-20T00:05:40.948Z,11.68
2022-09-20T00:08:10.548Z,7.85
2022-09-20T00:10:39.401Z,9.30
2022-09-20T00:13:07.680Z,7.32
2022-09-20T00:15:34.931Z,6.55
2022-09-20T00:18:01.477Z,9.38
2022-09-20T00:20:28.038Z,7.47
2022-09-20T00:22:54.575Z,11.43
2022-09-20T00:25:22.497Z,9.82
2022-09-20T00:27:49.121Z,6.85
2022-09-20T00:30:15.732Z,7.03
2022-09-20T00:32:42.256Z,7.32
2022-09-20T00:35:10.708Z,11.52
2022-09-20T00:37:39.051Z,11.73
2022-09-20T00:40:14.151Z,8.88
2022-09-20T00:42:40.963Z,7.82
2022-09-20T00:45:17.868Z,6.45
2022-09-20T00:47:48.186Z,7.55
2022-09-20T00:50:24.177Z,4.93
2022-09-20T00:53:12.878Z,7.88
2022-09-20T00:55:43.026Z,5.65
2022-09-20T00:58:09.630Z,8.25
2022-09-20T01:00:36.176Z,6.75
2022-09-20T01:03:04.427Z,6.97
2022-09-20T01:05:31.067Z,10.25
2022-09-20T01:07:57.629Z,6.57
2022-09-20T01:10:24.238Z,8.15
2022-09-20T01:12:50.807Z,11.38
2022-09-20T01:15:18.206Z,10.35
2022-09-20T01:17:48.460Z,6.10
2022-09-20T01:20:24.084Z,7.85
2022-09-20T01:23:16.901Z,10.75
2022-09-20T01:26:08.287Z,6.55
2022-09-20T01:28:34.826Z,7.63
2022-09-20T01:31:04.516Z,8.82
2022-09-20T01:34:03.130Z,4.88
2022-09-20T01:36:50.245Z,8.18
2022-09-20T01:39:19.206Z,8.80
2022-09-20T01:41:51.731Z,6.55
2022-09-20T01:44:25.836Z,7.63
2022-09-20T01:46:59.921Z,8.55
2022-09-20T01:49:31.413Z,9.25
2022-09-20T01:52:25.895Z,7.78
2022-09-20T01:55:08.268Z,8.60
2022-09-20T01:57:40.935Z,8.60
2022-09-20T02:00:15.698Z,8.85
2022-09-20T02:03:00.848Z,10.63
2022-09-20T02:05:49.668Z,6.53
2022-09-20T02:08:35.760Z,5.43
2022-09-20T02:11:12.710Z,6.70
2022-09-20T02:13:39.193Z,5.85
2022-09-20T02:16:34.836Z,8.85
2022-09-20T02:19:26.755Z,10.27
2022-09-20T02:22:18.228Z,8.40
2022-09-20T02:24:58.599Z,5.85
2022-09-20T02:27:54.688Z,6.68
2022-09-20T02:30:45.088Z,9.10
2022-09-20T02:33:29.955Z,5.82
2022-09-20T02:36:23.875Z,6.35
2022-09-20T02:39:08.350Z,7.47
2022-09-20T02:41:45.855Z,7.30
2022-09-20T02:44:18.837Z,7.80
2022-09-20T02:47:11.213Z,6.78
2022-09-20T02:49:43.795Z,4.70
2022-09-20T02:52:54.916Z,4.68
2022-09-20T02:55:38.471Z,7.53
2022-09-20T02:58:26.803Z,6.72
2022-09-20T03:01:08.129Z,4.40
2022-09-20T03:03:49.896Z,7.72
2022-09-20T03:06:40.634Z,5.45
2022-09-20T03:09:18.791Z,7.55
2022-09-20T03:12:06.728Z,5.68
2022-09-20T03:14:37.947Z,5.72
2022-09-20T03:17:14.251Z,5.28
2022-09-20T03:19:40.747Z,4.28
2022-09-20T03:22:23.104Z,6.28
2022-09-20T03:25:01.423Z,10.27
2022-09-20T03:27:40.052Z,3.78
2022-09-20T03:30:23.263Z,6.03
2022-09-20T03:33:05.265Z,4.40
2022-09-20T03:35:31.773Z,7.05
2022-09-20T03:38:29.181Z,5.50
2022-09-20T03:41:32.154Z,4.78
2022-09-20T03:44:01.673Z,5.03
2022-09-20T03:46:48.691Z,5.03
2022-09-20T03:49:52.956Z,5.55
2022-09-20T03:52:37.787Z,3.85
2022-09-20T03:55:16.272Z,3.35
2022-09-20T03:58:09.020Z,6.00
2022-09-20T04:00:50.741Z,7.57
2022-09-20T04:03:37.396Z,6.60
2022-09-20T04:06:17.102Z,10.70
2022-09-20T04:08:52.477Z,5.10
2022-09-20T04:11:44.236Z,6.55
2022-09-20T04:14:25.603Z,4.80
2022-09-20T04:17:02.531Z,4.90
2022-09-20T04:19:40.123Z,4.97
2022-09-20T04:22:08.142Z,3.38
2022-09-20T04:24:46.718Z,9.25
2022-09-20T04:27:32.139Z,3.00
2022-09-20T04:30:22.240Z,5.00
2022-09-20T04:33:06.536Z,7.65
2022-09-20T04:36:03.902Z,3.45
2022-09-20T04:38:30.728Z,5.25
2022-09-20T04:41:22.962Z,6.15
2022-09-20T04:43:58.473Z,5.47
2022-09-20T04:46:25.852Z,8.88
2022-09-20T04:49:26.053Z,7.03
2022-09-20T04:52:31.987Z,7.40
2022-09-20T04:55:07.123Z,6.90
2022-09-20T04:58:04.736Z,5.97
2022-09-20T05:00:53.155Z,8.38
2022-09-20T05:03:44.155Z,3.08
2022-09-20T05:06:11.410Z,6.00
2022-09-20T05:09:08.917Z,9.40
2022-09-20T05:12:14.218Z,5.85
2022-09-20T05:15:10.105Z,6.03
2022-09-20T05:17:38.899Z,7.43
2022-09-20T05:20:24.348Z,6.47
2022-09-20T05:23:35.641Z,5.95
2022-09-20T05:26:30.442Z,7.05
2022-09-20T05:29:01.845Z,6.25
2022-09-20T05:31:38.322Z,6.03
2022-09-20T05:34:44.135Z,7.70
2022-09-20T05:37:16.843Z,7.00
2022-09-20T05:39:59.778Z,6.72
2022-09-20T05:42:47.131Z,6.57
2022-09-20T05:45:36.586Z,7.35
2022-09-20T05:48:32.485Z,5.05
2022-09-20T05:51:25.042Z,3.90
2022-09-20T05:54:03.460Z,5.55
2022-09-20T05:56:39.932Z,5.47
2022-09-20T05:59:21.803Z,4.88
2022-09-20T06:02:09.670Z,8.25
2022-09-20T06:04:47.034Z,9.60
2022-09-20T06:07:31.001Z,5.97
2022-09-20T06:10:09.676Z,4.85
2022-09-20T06:12:47.944Z,8.52
2022-09-20T06:15:29.144Z,7.60
2022-09-20T06:18:13.796Z,6.63
2022-09-20T06:21:02.022Z,3.83
2022-09-20T06:23:28.617Z,9.50
2022-09-20T06:26:23.741Z,3.38
2022-09-20T06:29:02.566Z,3.72
2022-09-20T06:31:29.194Z,7.45
2022-09-20T06:34:09.072Z,7.10
2022-09-20T06:36:56.634Z,6.50
2022-09-20T06:39:57.123Z,6.00
2022-09-20T06:42:27.044Z,6.40
2022-09-20T06:44:54.337Z,8.77
2022-09-20T06:47:21.867Z,10.32
2022-09-20T06:49:50.192Z,5.85
2022-09-20T06:52:21.300Z,6.13
2022-09-20T06:54:50.179Z,6.72
2022-09-20T06:57:22.994Z,8.15
2022-09-20T06:59:49.597Z,4.15
2022-09-20T07:02:16.194Z,6.78
2022-09-20T07:04:43.709Z,5.30
2022-09-20T07:07:15.585Z,7.43
2022-09-20T07:09:42.283Z,5.60
2022-09-20T07:12:10.881Z,8.48
2022-09-20T07:14:37.720Z,6.43
2022-09-20T07:17:04.692Z,7.32
2022-09-20T07:19:31.282Z,9.93
2022-09-20T07:21:57.904Z,4.25
2022-09-20T07:24:24.475Z,6.88
2022-09-20T07:27:01.003Z,4.63
2022-09-20T07:29:28.306Z,9.10
2022-09-20T07:31:55.778Z,11.88
2022-09-20T07:34:22.377Z,4.82
2022-09-20T07:36:49.976Z,12.30
2022-09-20T07:39:17.418Z,10.10
2022-09-20T07:41:48.653Z,9.88
2022-09-20T07:44:22.205Z,5.80
2022-09-20T07:46:49.666Z,7.88
2022-09-20T07:49:16.310Z,9.13
2022-09-20T07:51:42.940Z,9.25
2022-09-20T07:54:09.582Z,8.32
2022-09-20T07:56:36.675Z,5.60
2022-09-20T07:59:03.433Z,7.63
2022-09-20T08:01:30.258Z,8.15
2022-09-20T08:03:57.491Z,8.50
2022-09-20T08:06:24.069Z,5.43
2022-09-20T08:08:51.802Z,7.70
2022-09-20T08:11:21.783Z,8.95
2022-09-20T08:14:07.074Z,9.00
2022-09-20T08:16:41.534Z,7.78
2022-09-20T08:19:08.319Z,8.43
2022-09-20T08:21:35.590Z,10.63
2022-09-20T08:24:04.075Z,8.60
2022-09-20T08:26:31.715Z,7.30
2022-09-20T08:28:59.605Z,8.88
2022-09-20T08:31:28.426Z,5.10
2022-09-20T08:33:55.157Z,9.85
2022-09-20T08:36:25.994Z,4.93
2022-09-20T08:41:48.531Z,8.63
2022-09-20T08:44:17.139Z,8.27
2022-09-20T08:46:46.453Z,4.85
2022-09-20T08:49:17.509Z,8.70
2022-09-20T08:51:48.640Z,8.10
2022-09-20T08:54:16.447Z,8.73
2022-09-20T08:56:46.776Z,7.43
2022-09-20T08:59:20.199Z,5.10
2022-09-20T09:01:48.799Z,8.27
2022-09-20T09:04:21.538Z,7.07
2022-09-20T09:06:49.136Z,6.53
2022-09-20T09:09:20.973Z,10.77
2022-09-20T09:11:49.182Z,10.90
2022-09-20T09:14:51.706Z,5.15
2022-09-20T09:17:20.124Z,6.32
2022-09-20T09:19:46.897Z,5.82
2022-09-20T09:22:19.139Z,5.18
2022-09-20T09:24:46.365Z,3.92
2022-09-20T09:27:14.925Z,7.28
2022-09-20T09:29:52.658Z,7.03
2022-09-20T09:32:33.008Z,7.00
2022-09-20T09:35:28.833Z,3.70
2022-09-20T09:37:58.313Z,7.43
2022-09-20T09:40:25.369Z,8.55
2022-09-20T09:42:57.686Z,6.20
2022-09-20T09:45:32.683Z,4.75
2022-09-20T09:48:01.642Z,9.55
2022-09-20T09:50:33.643Z,7.97
2022-09-20T09:53:10.387Z,3.83
2022-09-20T09:56:00.260Z,3.97
2022-09-20T09:58:32.020Z,5.88
2022-09-20T10:00:59.727Z,7.00
2022-09-20T10:04:17.025Z,6.53
2022-09-20T10:07:06.558Z,6.25
2022-09-20T10:09:40.849Z,3.25
2022-09-20T10:12:42.688Z,7.25
2022-09-20T10:15:33.148Z,6.05
2022-09-20T10:18:26.090Z,5.80
2022-09-20T10:20:53.338Z,4.18
2022-09-20T10:24:04.266Z,5.22
2022-09-20T10:26:56.079Z,6.63
2022-09-20T10:29:45.680Z,2.60
2022-09-20T10:32:21.228Z,6.35
2022-09-20T10:35:07.694Z,4.15
2022-09-20T10:38:11.612Z,7.47
2022-09-20T10:41:21.657Z,4.97
2022-09-20T10:44:04.839Z,5.57
2022-09-20T10:46:53.836Z,4.95
2022-09-20T10:49:41.829Z,7.30
2022-09-20T10:52:10.468Z,4.32
2022-09-20T10:54:58.857Z,4.82
2022-09-20T10:57:28.509Z,5.88
2022-09-20T11:00:00.949Z,6.47
2022-09-20T11:03:03.039Z,4.93
2022-09-20T11:05:51.670Z,5.88
2022-09-20T11:08:22.957Z,4.78
2022-09-20T11:10:52.203Z,5.65
2022-09-20T11:13:24.156Z,3.58
2022-09-20T11:16:05.858Z,3.80
2022-09-20T11:18:39.603Z,5.35
2022-09-20T11:21:30.067Z,5.95
2022-09-20T11:23:57.679Z,3.63
2022-09-20T11:26:40.183Z,4.78
2022-09-20T11:29:26.165Z,6.25
2022-09-20T11:31:54.790Z,6.28
2022-09-20T11:34:25.950Z,3.10
2022-09-20T11:37:01.612Z,6.28
2022-09-20T11:39:44.110Z,3.88
2022-09-20T11:42:20.354Z,5.82
2022-09-20T11:44:47.144Z,7.57
2022-09-20T11:47:49.979Z,5.82
2022-09-20T11:50:51.885Z,4.38
2022-09-20T11:53:37.738Z,6.05
2022-09-20T11:56:20.462Z,2.88
2022-09-20T11:59:00.648Z,7.38
2022-09-20T12:01:32.329Z,5.32
2022-09-20T12:04:21.047Z,4.88
2022-09-20T12:06:47.425Z,4.85
2022-09-20T12:09:29.805Z,4.30
2022-09-20T12:11:56.642Z,9.68
2022-09-20T12:14:27.666Z,4.85
2022-09-20T12:16:54.876Z,4.20
2022-09-20T12:19:21.436Z,3.90
2022-09-20T12:22:00.167Z,4.60
2022-09-20T12:24:29.335Z,6.03
2022-09-20T12:26:57.642Z,4.75
2022-09-20T12:29:24.148Z,3.58
2022-09-20T12:31:58.024Z,4.10
2022-09-20T12:34:24.588Z,2.50
2022-09-20T12:36:53.953Z,8.98
2022-09-20T12:39:30.588Z,4.72
2022-09-20T12:42:12.450Z,6.43
2022-09-20T12:44:49.723Z,4.68
2022-09-20T12:47:18.476Z,3.58
2022-09-20T12:50:06.727Z,3.53
2022-09-20T12:53:00.783Z,4.00
2022-09-20T12:55:27.527Z,4.70
2022-09-20T12:58:18.581Z,3.92
2022-09-20T13:00:48.764Z,4.65
2022-09-20T13:03:15.336Z,2.50
2022-09-20T13:05:45.856Z,3.17
2022-09-20T13:08:13.197Z,2.60
2022-09-20T13:10:43.014Z,2.38
2022-09-20T13:13:23.901Z,3.13
2022-09-20T13:15:51.525Z,2.38
2022-09-20T13:18:18.237Z,3.05
2022-09-20T13:20:44.841Z,4.03
2022-09-20T13:23:24.629Z,5.57
2022-09-20T13:25:51.272Z,5.93
2022-09-20T13:28:35.329Z,5.50
2022-09-20T13:31:20.317Z,2.65
2022-09-20T13:33:49.879Z,2.85
2022-09-20T13:36:26.840Z,3.58
2022-09-20T13:38:55.434Z,7.53
2022-09-20T13:41:23.002Z,9.52
2022-09-20T13:43:50.100Z,4.15
2022-09-20T13:46:43.856Z,5.80
2022-09-20T13:49:17.718Z,4.57
2022-09-20T13:51:44.356Z,4.45
2022-09-20T13:54:19.405Z,3.78
2022-09-20T13:56:45.953Z,5.68
2022-09-20T13:59:19.338Z,2.35
2022-09-20T14:01:51.118Z,4.95
2022-09-20T14:04:21.560Z,5.88
2022-09-20T14:06:48.438Z,5.20
2022-09-20T14:09:34.682Z,2.67
2022-09-20T14:12:01.508Z,3.40
2022-09-20T14:14:28.146Z,4.45
2022-09-20T14:16:55.566Z,6.47
2022-09-20T14:19:25.974Z,6.85
2022-09-20T14:21:52.503Z,4.20
2022-09-20T14:24:34.596Z,3.80
2022-09-20T14:27:21.850Z,3.50
2022-09-20T14:29:50.717Z,3.22
2022-09-20T14:32:17.233Z,3.05
2022-09-20T14:34:56.711Z,4.30
2022-09-20T14:37:35.125Z,4.72
2022-09-20T14:40:04.284Z,5.00
2022-09-20T14:42:36.117Z,5.15
2022-09-20T14:45:06.467Z,3.40
2022-09-20T14:47:38.535Z,4.03
2022-09-20T14:50:26.156Z,4.10
2022-09-20T14:53:11.072Z,3.42
2022-09-20T14:55:39.124Z,4.03
2022-09-20T14:58:13.577Z,3.67
2022-09-20T15:00:58.062Z,2.85
2022-09-20T15:03:28.811Z,6.30
2022-09-20T15:05:55.410Z,7.65
2022-09-20T15:08:22.132Z,4.78
2022-09-20T15:10:48.903Z,4.38
2022-09-20T15:13:16.639Z,6.50
2022-09-20T15:15:44.525Z,3.20
2022-09-20T15:18:28.275Z,3.28
2022-09-20T15:20:55.150Z,4.00
2022-09-20T15:23:22.007Z,2.90
2022-09-20T15:25:52.458Z,4.63
2022-09-20T15:28:19.233Z,1.98
2022-09-20T15:30:47.072Z,4.70
2022-09-20T15:33:14.093Z,1.33
2022-09-20T15:35:41.819Z,1.50
2022-09-20T15:38:09.079Z,1.63
2022-09-20T15:40:36.142Z,1.40
2022-09-20T15:43:02.779Z,2.17
2022-09-20T15:45:29.445Z,2.25
2022-09-20T15:47:56.281Z,2.25
2022-09-20T15:50:23.530Z,1.38
2022-09-20T15:52:51.615Z,2.08
2022-09-20T15:55:19.005Z,4.88
2022-09-20T15:57:46.164Z,3.80
2022-09-20T16:00:14.736Z,2.72
2022-09-20T16:02:41.359Z,3.40
2022-09-20T16:05:10.069Z,5.00
2022-09-20T16:07:36.771Z,2.45
2022-09-20T16:10:03.472Z,1.88
2022-09-20T16:12:30.119Z,2.72
2022-09-20T16:14:56.692Z,3.67
2022-09-20T16:17:43.214Z,1.55
2022-09-20T16:20:10.182Z,2.00
2022-09-20T16:22:36.921Z,1.38
2022-09-20T16:25:06.124Z,3.15
2022-09-20T16:27:34.946Z,3.22
2022-09-20T16:30:02.567Z,2.72
2022-09-20T16:32:29.215Z,2.05
2022-09-20T16:34:56.016Z,3.42
2022-09-20T16:37:23.512Z,1.73
2022-09-20T16:39:50.106Z,1.83
2022-09-20T16:42:17.081Z,3.03
2022-09-20T16:44:43.680Z,2.38
2022-09-20T16:47:22.261Z,4.63
2022-09-20T16:49:50.334Z,1.55
2022-09-20T16:52:17.007Z,3.33
2022-09-20T16:54:43.594Z,3.58
2022-09-20T16:57:10.130Z,4.50
2022-09-20T16:59:36.740Z,2.08
2022-09-20T17:02:03.331Z,4.03
2022-09-20T17:04:30.228Z,3.22
2022-09-20T17:06:56.900Z,1.88
2022-09-20T17:09:23.585Z,3.60
2022-09-20T17:11:51.385Z,5.40
2022-09-20T17:14:19.770Z,3.28
2022-09-20T17:16:48.018Z,2.92
2022-09-20T17:19:16.712Z,6.65
2022-09-20T17:21:45.709Z,4.25
2022-09-20T17:24:13.863Z,3.58
2022-09-20T17:26:41.900Z,4.85
2022-09-20T17:29:10.339Z,2.25
2022-09-20T17:31:38.743Z,5.20
2022-09-20T17:34:07.261Z,3.47
2022-09-20T17:36:39.777Z,3.78
2022-09-20T17:39:06.857Z,3.03
2022-09-20T17:41:37.420Z,4.43
2022-09-20T17:44:08.398Z,5.22
2022-09-20T17:46:37.188Z,4.75
2022-09-20T17:49:08.794Z,5.30
2022-09-20T17:51:40.566Z,3.75
2022-09-20T17:54:07.731Z,3.50
2022-09-20T17:56:35.506Z,4.47
2022-09-20T17:59:03.301Z,4.38
2022-09-20T18:01:30.912Z,3.05
2022-09-20T18:03:59.150Z,4.40
2022-09-20T18:06:30.117Z,3.78
2022-09-20T18:09:01.325Z,4.95
2022-09-20T18:11:49.459Z,5.85
2022-09-20T18:14:18.022Z,8.65
2022-09-20T18:16:44.609Z,4.60
2022-09-20T18:19:11.442Z,3.22
2022-09-20T18:21:39.304Z,4.97
2022-09-20T18:24:06.780Z,5.20
2022-09-20T18:26:33.722Z,7.75
2022-09-20T18:29:02.185Z,5.00
2022-09-20T18:31:43.292Z,8.60
2022-09-20T18:34:12.155Z,5.97
2022-09-20T18:36:41.984Z,5.40
2022-09-20T18:39:08.746Z,2.95
2022-09-20T18:41:37.020Z,5.15
2022-09-20T18:44:04.909Z,5.50
2022-09-20T18:46:31.816Z,6.88
2022-09-20T18:49:01.432Z,6.97
2022-09-20T18:51:30.775Z,5.95
2022-09-20T18:53:58.344Z,7.05
2022-09-20T18:56:26.331Z,5.13
2022-09-20T18:58:55.398Z,6.30
2022-09-20T19:01:55.710Z,7.35
2022-09-20T19:04:40.496Z,11.75
2022-09-20T19:07:33.144Z,7.53
2022-09-20T19:10:16.706Z,10.07
2022-09-20T19:12:55.311Z,8.63
2022-09-20T19:15:43.735Z,10.93
2022-09-20T19:18:25.235Z,10.02
2022-09-20T19:20:57.781Z,6.95
2022-09-20T19:23:45.546Z,5.43
2022-09-20T19:26:26.595Z,6.05
2022-09-20T19:28:57.973Z,10.23
2022-09-20T19:31:30.747Z,7.53
2022-09-20T19:33:59.262Z,5.35
2022-09-20T19:36:39.469Z,6.03
2022-09-20T19:39:24.414Z,5.55
2022-09-20T19:41:54.799Z,8.10
2022-09-20T19:44:40.585Z,7.47
2022-09-20T19:47:14.251Z,7.85
2022-09-20T19:50:27.235Z,9.70
2022-09-20T19:52:56.229Z,6.80
2022-09-20T19:55:23.223Z,6.30
2022-09-20T19:57:50.058Z,8.73
2022-09-20T20:00:20.798Z,9.75
2022-09-20T20:02:47.802Z,13.73
2022-09-20T20:05:16.709Z,7.90
2022-09-20T20:08:08.934Z,11.20
2022-09-20T20:10:56.899Z,10.85
2022-09-20T20:13:45.177Z,7.63
2022-09-20T20:16:13.751Z,12.35
2022-09-20T20:19:06.779Z,10.52
2022-09-20T20:21:59.020Z,14.38
2022-09-20T20:24:37.065Z,18.73
2022-09-20T20:27:04.024Z,17.02
2022-09-20T20:29:30.590Z,16.13
2022-09-20T20:31:57.138Z,12.25
2022-09-20T20:34:24.512Z,12.77
2022-09-20T20:36:52.457Z,15.73
2022-09-20T20:39:19.045Z,14.88
2022-09-20T20:41:52.433Z,12.13
2022-09-20T20:44:20.869Z,10.85
2022-09-20T20:46:48.177Z,12.82
2022-09-20T20:49:15.572Z,13.40
2022-09-20T20:51:42.220Z,11.88
2022-09-20T20:54:10.099Z,11.65
2022-09-20T20:56:36.714Z,10.55
2022-09-20T20:59:04.024Z,11.45
2022-09-20T21:01:38.519Z,13.27
2022-09-20T21:04:05.276Z,13.05
2022-09-20T21:06:34.468Z,9.90
2022-09-20T21:09:01.768Z,11.52
2022-09-20T21:11:30.294Z,10.23
2022-09-20T21:13:57.999Z,12.30
2022-09-20T21:16:29.830Z,11.25
2022-09-20T21:18:56.870Z,11.65
2022-09-20T21:21:26.021Z,12.02
2022-09-20T21:23:57.668Z,8.02
2022-09-20T21:26:25.440Z,9.23
2022-09-20T21:28:54.004Z,9.05
2022-09-20T21:31:21.714Z,9.43
2022-09-20T21:33:48.621Z,12.93
2022-09-20T21:36:16.750Z,8.50
2022-09-20T21:38:43.869Z,9.23
2022-09-20T21:41:11.939Z,9.02
2022-09-20T21:43:42.829Z,10.00
2022-09-20T21:46:14.155Z,8.60
2022-09-20T21:48:41.226Z,10.10
2022-09-20T21:51:09.518Z,7.07
2022-09-20T21:53:36.689Z,12.98
2022-09-20T21:56:05.117Z,9.15
2022-09-20T21:58:31.727Z,8.88
2022-09-20T22:01:02.491Z,9.68
2022-09-20T22:03:32.716Z,10.40
2022-09-20T22:06:17.336Z,8.55
2022-09-20T22:09:10.726Z,10.05
2022-09-20T22:11:42.107Z,14.73
2022-09-20T22:14:09.658Z,13.27
2022-09-20T22:16:41.325Z,12.60
2022-09-20T22:19:09.763Z,12.48
2022-09-20T22:21:41.034Z,11.15
2022-09-20T22:24:08.902Z,10.90
2022-09-20T22:26:36.137Z,9.35
2022-09-20T22:29:03.081Z,9.45
2022-09-20T22:31:34.500Z,9.15
2022-09-20T22:34:03.983Z,12.52
2022-09-20T22:36:35.858Z,8.75
2022-09-20T22:39:03.805Z,9.38
2022-09-20T22:41:30.471Z,8.57
2022-09-20T22:43:57.024Z,7.68
2022-09-20T22:46:25.898Z,7.78
2022-09-20T22:48:52.756Z,9.23
2022-09-20T22:51:30.957Z,10.20
2022-09-20T22:53:57.520Z,8.73
2022-09-20T22:56:25.842Z,9.25
2022-09-20T22:58:54.385Z,11.23
2022-09-20T23:01:22.388Z,10.40
2022-09-20T23:03:55.157Z,8.68
2022-09-20T23:06:24.156Z,9.43
2022-09-20T23:08:51.883Z,9.50
2022-09-20T23:11:18.821Z,10.18
2022-09-20T23:13:45.991Z,9.63
2022-09-20T23:16:18.763Z,8.80
2022-09-20T23:18:46.141Z,9.05
2022-09-20T23:21:12.815Z,7.95
2022-09-20T23:23:41.672Z,11.45
2022-09-20T23:26:18.627Z,8.90
2022-09-20T23:28:46.872Z,9.52
2022-09-20T23:31:17.093Z,7.75
2022-09-20T23:33:51.258Z,10.07
2022-09-20T23:36:18.343Z,9.18
2022-09-20T23:38:45.314Z,8.23
2022-09-20T23:41:14.242Z,10.98
2022-09-20T23:43:41.397Z,8.30
2022-09-20T23:46:08.940Z,8.15
2022-09-20T23:48:36.383Z,10.30
2022-09-20T23:51:04.396Z,14.50
2022-09-20T23:53:31.271Z,10.15
2022-09-20T23:55:57.971Z,9.68
2022-09-20T23:58:24.614Z,11.35
